createdAt,value
2022-10-14T00:01:58.309Z,4.70
2022-10-14T00:04:25.239Z,4.90
2022-10-14T00:06:52.011Z,5.22
2022-10-14T00:09:18.789Z,7.72
2022-10-14T00:11:45.574Z,6.53
2022-10-14T00:14:16.256Z,5.55
2022-10-14T00:16:44.787Z,7.43
2022-10-14T00:19:11.875Z,5.30
2022-10-14T00:21:42.596Z,5.68
2022-10-14T00:24:11.936Z,5.10
2022-10-14T00:26:40.510Z,5.30
2022-10-14T00:29:11.642Z,4.38
2022-10-14T00:31:39.077Z,4.18
2022-10-14T00:34:06.034Z,4.50
2022-10-14T00:36:32.861Z,6.05
2022-10-14T00:38:59.653Z,5.53
2022-10-14T00:41:32.017Z,5.70
2022-10-14T00:44:02.350Z,4.15
2022-10-14T00:46:35.666Z,3.80
2022-10-14T00:49:10.455Z,3.97
2022-10-14T00:51:39.655Z,4.45
2022-10-14T00:54:07.296Z,4.82
2022-10-14T00:56:35.740Z,5.13
2022-10-14T00:59:05.568Z,3.78
2022-10-14T01:01:32.907Z,3.83
2022-10-14T01:03:59.667Z,6.32
2022-10-14T01:06:26.464Z,6.70
2022-10-14T01:08:58.978Z,4.70
2022-10-14T01:11:37.851Z,3.28
2022-10-14T01:14:14.534Z,3.92
2022-10-14T01:16:50.662Z,5.25
2022-10-14T01:21:54.501Z,5.25
2022-10-14T01:24:47.180Z,4.22
2022-10-14T01:27:27.253Z,5.55
2022-10-14T01:30:26.792Z,2.90
2022-10-14T01:33:12.297Z,4.95
2022-10-14T01:36:06.405Z,5.65
2022-10-14T01:38:38.957Z,3.78
2022-10-14T01:41:18.871Z,4.03
2022-10-14T01:43:48.874Z,3.40
2022-10-14T01:46:18.489Z,6.53
2022-10-14T01:48:56.156Z,5.05
2022-10-14T01:51:32.180Z,4.15
2022-10-14T01:56:31.392Z,5.57
2022-10-14T01:59:00.513Z,4.78
2022-10-14T02:01:27.778Z,4.40
2022-10-14T02:03:54.800Z,3.40
2022-10-14T02:06:34.186Z,4.05
2022-10-14T02:09:11.812Z,4.88
2022-10-14T02:11:57.933Z,5.40
2022-10-14T02:14:41.004Z,4.20
2022-10-14T02:17:28.029Z,6.55
2022-10-14T02:20:15.300Z,5.03
2022-10-14T02:22:57.907Z,3.03
2022-10-14T02:25:36.237Z,4.63
2022-10-14T02:28:08.010Z,6.47
2022-10-14T02:30:40.464Z,4.80
2022-10-14T02:33:08.376Z,5.45
2022-10-14T02:35:38.766Z,4.22
2022-10-14T02:38:07.645Z,5.30
2022-10-14T02:40:42.096Z,6.03
2022-10-14T02:43:10.872Z,5.13
2022-10-14T02:45:39.677Z,4.13
2022-10-14T02:48:07.396Z,3.17
2022-10-14T02:50:34.473Z,3.80
2022-10-14T02:53:01.475Z,3.40
2022-10-14T02:55:28.527Z,3.47
2022-10-14T02:57:55.504Z,4.03
2022-10-14T03:00:22.328Z,5.38
2022-10-14T03:02:49.114Z,3.47
2022-10-14T03:05:16.014Z,4.43
2022-10-14T03:07:42.777Z,7.18
2022-10-14T03:10:09.603Z,3.92
2022-10-14T03:12:36.638Z,3.67
2022-10-14T03:15:03.763Z,4.82
2022-10-14T03:17:30.925Z,5.63
2022-10-14T03:19:59.241Z,4.20
2022-10-14T03:22:26.709Z,4.15
2022-10-14T03:24:53.486Z,4.30
2022-10-14T03:27:20.356Z,3.60
2022-10-14T03:29:47.241Z,5.20
2022-10-14T03:32:14.090Z,4.03
2022-10-14T03:34:40.943Z,3.80
2022-10-14T03:37:07.813Z,4.38
2022-10-14T03:39:34.843Z,5.28
2022-10-14T03:42:01.830Z,3.72
2022-10-14T03:44:28.918Z,3.40
2022-10-14T03:46:55.641Z,3.53
2022-10-14T03:49:22.431Z,5.00
2022-10-14T03:51:49.182Z,3.35
2022-10-14T03:54:16.046Z,5.95
2022-10-14T03:56:42.926Z,3.63
2022-10-14T03:59:09.738Z,3.90
2022-10-14T04:01:36.558Z,5.05
2022-10-14T04:04:03.376Z,4.90
2022-10-14T04:06:31.181Z,3.92
2022-10-14T04:08:58.057Z,4.40
2022-10-14T04:11:24.955Z,3.05
2022-10-14T04:13:51.705Z,5.45
2022-10-14T04:16:18.440Z,3.88
2022-10-14T04:18:45.183Z,6.55
2022-10-14T04:21:12.461Z,5.55
2022-10-14T04:23:39.260Z,3.92
2022-10-14T04:26:09.805Z,5.18
2022-10-14T04:28:37.143Z,4.30
2022-10-14T04:31:04.968Z,5.03
2022-10-14T04:33:31.748Z,5.03
2022-10-14T04:35:59.982Z,5.07
2022-10-14T04:38:27.500Z,5.03
2022-10-14T04:40:54.267Z,4.43
2022-10-14T04:43:21.422Z,5.47
2022-10-14T04:45:48.911Z,4.10
2022-10-14T04:48:16.558Z,5.13
2022-10-14T04:50:43.614Z,4.85
2022-10-14T04:53:13.456Z,4.28
2022-10-14T04:55:40.885Z,4.35
2022-10-14T04:58:07.662Z,5.03
2022-10-14T05:00:34.497Z,4.45
2022-10-14T05:03:01.240Z,3.97
2022-10-14T05:05:28.439Z,3.60
2022-10-14T05:07:55.249Z,5.97
2022-10-14T05:10:22.118Z,7.05
2022-10-14T05:12:49.016Z,4.72
2022-10-14T05:15:15.924Z,4.75
2022-10-14T05:17:44.639Z,4.53
2022-10-14T05:20:12.555Z,5.68
2022-10-14T05:22:39.762Z,4.57
2022-10-14T05:25:06.984Z,5.00
2022-10-14T05:27:33.785Z,5.53
2022-10-14T05:30:00.636Z,5.68
2022-10-14T05:32:27.648Z,5.03
2022-10-14T05:34:55.238Z,5.97
2022-10-14T05:37:22.049Z,5.03
2022-10-14T05:39:48.805Z,6.05
2022-10-14T05:42:15.569Z,6.00
2022-10-14T05:44:42.337Z,5.95
2022-10-14T05:47:10.514Z,5.40
2022-10-14T05:49:37.253Z,7.40
2022-10-14T05:52:04.543Z,6.03
2022-10-14T05:54:31.440Z,5.22
2022-10-14T05:56:58.290Z,5.75
2022-10-14T05:59:25.303Z,8.88
2022-10-14T06:01:52.184Z,5.55
2022-10-14T06:04:21.050Z,5.80
2022-10-14T06:06:47.838Z,5.43
2022-10-14T06:09:15.032Z,6.05
2022-10-14T06:11:41.870Z,5.50
2022-10-14T06:14:08.679Z,9.75
2022-10-14T06:16:35.910Z,5.80
2022-10-14T06:19:03.029Z,7.53
2022-10-14T06:21:29.805Z,7.15
2022-10-14T06:23:56.612Z,5.75
2022-10-14T06:26:23.383Z,5.88
2022-10-14T06:28:50.451Z,5.22
2022-10-14T06:31:17.370Z,5.40
2022-10-14T06:33:44.357Z,7.38
2022-10-14T06:36:11.912Z,6.03
2022-10-14T06:38:38.717Z,6.22
2022-10-14T06:41:05.472Z,5.90
2022-10-14T06:43:32.327Z,6.10
2022-10-14T06:45:59.600Z,6.10
2022-10-14T06:48:26.584Z,6.57
2022-10-14T06:50:53.378Z,5.95
2022-10-14T06:53:20.452Z,6.45
2022-10-14T06:55:47.216Z,6.63
2022-10-14T06:58:13.975Z,7.70
2022-10-14T07:00:45.630Z,6.63
2022-10-14T07:03:14.849Z,6.32
2022-10-14T07:05:41.647Z,6.20
2022-10-14T07:08:11.359Z,6.22
2022-10-14T07:10:41.298Z,8.10
2022-10-14T07:13:08.259Z,6.65
2022-10-14T07:15:36.357Z,8.35
2022-10-14T07:18:04.307Z,6.90
2022-10-14T07:20:31.109Z,6.07
2022-10-14T07:22:58.025Z,6.72
2022-10-14T07:25:24.854Z,5.70
2022-10-14T07:27:54.669Z,6.82
2022-10-14T07:30:21.534Z,5.70
2022-10-14T07:32:48.340Z,6.07
2022-10-14T07:35:15.251Z,8.35
2022-10-14T07:37:42.265Z,6.45
2022-10-14T07:40:09.870Z,5.72
2022-10-14T07:42:36.699Z,7.03
2022-10-14T07:45:04.720Z,5.65
2022-10-14T07:47:33.567Z,6.45
2022-10-14T07:50:01.422Z,6.15
2022-10-14T07:52:28.348Z,6.00
2022-10-14T07:54:55.170Z,5.75
2022-10-14T07:57:23.582Z,7.32
2022-10-14T07:59:52.530Z,7.13
2022-10-14T08:02:19.882Z,6.10
2022-10-14T08:04:47.390Z,6.47
2022-10-14T08:07:14.515Z,6.85
2022-10-14T08:09:41.319Z,8.13
2022-10-14T08:12:08.187Z,6.22
2022-10-14T08:14:35.006Z,6.20
2022-10-14T08:17:02.011Z,8.00
2022-10-14T08:19:29.050Z,7.07
2022-10-14T08:21:55.882Z,6.43
2022-10-14T08:24:22.649Z,7.22
2022-10-14T08:26:52.950Z,6.32
2022-10-14T08:29:22.487Z,6.65
2022-10-14T08:31:51.724Z,6.35
2022-10-14T08:34:21.747Z,7.53
2022-10-14T08:36:48.961Z,6.93
2022-10-14T08:39:19.166Z,7.00
2022-10-14T08:42:07.655Z,8.00
2022-10-14T08:44:42.504Z,7.47
2022-10-14T08:47:15.569Z,7.95
2022-10-14T08:49:45.667Z,7.75
2022-10-14T08:52:18.249Z,7.88
2022-10-14T08:54:49.696Z,8.50
2022-10-14T08:57:23.028Z,12.30
2022-10-14T08:59:49.907Z,9.57
2022-10-14T09:02:21.754Z,7.53
2022-10-14T09:04:49.109Z,8.00
2022-10-14T09:07:18.678Z,8.45
2022-10-14T09:09:50.324Z,9.27
2022-10-14T09:12:22.908Z,9.48
2022-10-14T09:14:59.814Z,7.95
2022-10-14T09:17:37.049Z,8.15
2022-10-14T09:20:23.349Z,7.95
2022-10-14T09:23:03.950Z,8.63
2022-10-14T09:25:34.465Z,7.22
2022-10-14T09:28:01.584Z,7.00
2022-10-14T09:30:33.484Z,6.28
2022-10-14T09:33:00.905Z,6.85
2022-10-14T09:35:37.575Z,5.85
2022-10-14T09:38:04.850Z,7.82
2022-10-14T09:40:36.745Z,6.75
2022-10-14T09:43:09.572Z,6.65
2022-10-14T09:46:00.084Z,6.03
2022-10-14T09:48:29.737Z,6.32
2022-10-14T09:50:57.933Z,6.60
2022-10-14T09:53:45.214Z,5.88
2022-10-14T09:56:12.687Z,6.65
2022-10-14T09:58:45.176Z,6.07
2022-10-14T10:01:20.819Z,7.07
2022-10-14T10:03:49.329Z,6.20
2022-10-14T10:06:20.298Z,5.35
2022-10-14T10:08:53.073Z,6.82
2022-10-14T10:11:37.745Z,7.18
2022-10-14T10:14:27.862Z,6.47
2022-10-14T10:17:10.036Z,7.07
2022-10-14T10:19:40.350Z,5.70
2022-10-14T10:22:26.693Z,7.25
2022-10-14T10:25:02.490Z,5.47
2022-10-14T10:29:57.253Z,5.43
2022-10-14T10:32:37.162Z,5.25
2022-10-14T10:35:16.876Z,5.15
2022-10-14T10:37:54.755Z,6.03
2022-10-14T10:40:32.075Z,6.18
2022-10-14T10:43:31.408Z,4.75
2022-10-14T10:46:23.411Z,4.82
2022-10-14T10:49:27.771Z,4.68
2022-10-14T10:52:28.386Z,5.80
2022-10-14T10:55:22.563Z,4.93
2022-10-14T10:58:27.633Z,4.45
2022-10-14T11:01:09.747Z,5.75
2022-10-14T11:04:05.593Z,4.88
2022-10-14T11:07:02.631Z,5.35
2022-10-14T11:12:26.569Z,5.18
2022-10-14T11:15:08.617Z,5.05
2022-10-14T11:17:59.390Z,5.75
2022-10-14T11:20:44.989Z,6.18
2022-10-14T11:24:00.052Z,6.70
2022-10-14T11:26:45.738Z,6.45
2022-10-14T11:29:41.207Z,5.87
2022-10-14T11:32:27.482Z,7.05
2022-10-14T11:35:18.969Z,6.25
2022-10-14T11:38:25.486Z,6.00
2022-10-14T11:41:17.635Z,6.97
2022-10-14T11:43:54.326Z,4.30
2022-10-14T11:46:26.357Z,4.78
2022-10-14T11:48:58.832Z,5.13
2022-10-14T11:51:48.823Z,4.00
2022-10-14T11:54:39.798Z,6.15
2022-10-14T11:57:26.288Z,4.57
2022-10-14T12:00:13.586Z,5.22
2022-10-14T12:02:49.450Z,5.18
2022-10-14T12:05:39.783Z,3.92
2022-10-14T12:12:19.979Z,3.97
2022-10-14T12:14:55.271Z,4.03
2022-10-14T12:17:43.727Z,3.50
2022-10-14T12:20:47.675Z,5.03
2022-10-14T12:23:27.162Z,4.00
2022-10-14T12:26:03.715Z,5.88
2022-10-14T12:28:31.154Z,4.18
2022-10-14T12:31:21.604Z,3.80
2022-10-14T12:34:10.989Z,3.80
2022-10-14T12:36:43.017Z,3.78
2022-10-14T12:39:31.429Z,4.00
2022-10-14T12:42:03.045Z,4.47
2022-10-14T12:44:42.361Z,4.35
2022-10-14T12:47:21.160Z,4.05
2022-10-14T12:49:51.837Z,4.03
2022-10-14T12:52:25.896Z,3.85
2022-10-14T12:54:54.055Z,4.38
2022-10-14T12:57:31.125Z,4.20
2022-10-14T13:00:07.923Z,4.40
2022-10-14T13:02:45.695Z,4.15
2022-10-14T13:05:37.006Z,3.50
2022-10-14T13:08:15.954Z,4.07
2022-10-14T13:10:47.381Z,4.25
2022-10-14T13:13:47.641Z,4.00
2022-10-14T13:16:26.477Z,4.38
2022-10-14T13:18:53.432Z,6.70
2022-10-14T13:21:31.888Z,5.22
2022-10-14T13:24:11.757Z,3.40
2022-10-14T13:26:47.809Z,3.63
2022-10-14T13:29:37.511Z,4.82
2022-10-14T13:32:15.963Z,3.65
2022-10-14T13:34:48.409Z,5.60
2022-10-14T13:37:44.943Z,4.28
2022-10-14T13:40:34.637Z,3.97
2022-10-14T13:43:29.275Z,4.60
2022-10-14T13:46:09.373Z,3.83
2022-10-14T13:48:41.178Z,3.33
2022-10-14T13:51:46.176Z,4.68
2022-10-14T13:54:24.705Z,4.05
2022-10-14T14:02:48.047Z,2.88
2022-10-14T14:05:19.165Z,3.15
2022-10-14T14:10:42.578Z,4.65
2022-10-14T14:13:18.876Z,4.80
2022-10-14T14:15:50.884Z,3.20
2022-10-14T14:18:34.071Z,3.28
2022-10-14T14:21:13.037Z,3.55
2022-10-14T14:23:55.609Z,2.80
2022-10-14T14:26:42.790Z,4.65
2022-10-14T14:29:19.162Z,3.58
2022-10-14T14:32:05.495Z,3.28
2022-10-14T14:34:35.806Z,3.08
2022-10-14T14:37:32.087Z,3.25
2022-10-14T14:39:58.241Z,2.95
2022-10-14T14:42:27.545Z,4.83
2022-10-14T14:45:03.045Z,3.35
2022-10-14T14:50:25.026Z,3.08
2022-10-14T14:52:48.370Z,4.25
2022-10-14T14:55:35.940Z,3.05
2022-10-14T14:58:05.219Z,3.03
2022-10-14T15:00:32.223Z,2.83
2022-10-14T15:03:03.864Z,3.25
2022-10-14T15:05:31.231Z,4.28
2022-10-14T15:07:58.143Z,3.08
2022-10-14T15:10:29.486Z,2.75
2022-10-14T15:12:58.671Z,3.40
2022-10-14T15:15:27.116Z,4.30
2022-10-14T15:18:14.653Z,3.05
2022-10-14T15:23:41.700Z,4.00
2022-10-14T15:26:21.661Z,3.78
2022-10-14T15:29:24.818Z,2.80
2022-10-14T15:32:14.774Z,5.15
2022-10-14T15:34:41.769Z,3.60
2022-10-14T15:37:13.131Z,3.58
2022-10-14T15:39:39.989Z,2.83
2022-10-14T15:42:12.233Z,3.97
2022-10-14T15:44:39.247Z,3.20
2022-10-14T15:47:21.598Z,3.53
2022-10-14T15:49:48.394Z,3.83
2022-10-14T15:52:16.604Z,5.20
2022-10-14T15:54:45.782Z,3.25
2022-10-14T15:57:15.632Z,3.28
2022-10-14T15:59:43.542Z,3.30
2022-10-14T16:02:26.897Z,3.47
2022-10-14T16:05:18.688Z,3.92
2022-10-14T16:07:41.174Z,2.97
2022-10-14T16:10:10.464Z,2.60
2022-10-14T16:12:37.342Z,3.53
2022-10-14T16:15:15.792Z,2.70
2022-10-14T16:17:42.952Z,4.75
2022-10-14T16:20:11.870Z,3.42
2022-10-14T16:22:38.719Z,3.42
2022-10-14T16:25:06.457Z,2.70
2022-10-14T16:27:33.280Z,2.95
2022-10-14T16:30:00.101Z,2.60
2022-10-14T16:32:26.888Z,2.80
2022-10-14T16:34:54.331Z,3.95
2022-10-14T16:37:21.351Z,2.78
2022-10-14T16:39:49.289Z,2.80
2022-10-14T16:42:18.444Z,2.95
2022-10-14T16:44:45.604Z,2.35
2022-10-14T16:47:19.475Z,2.80
2022-10-14T16:49:51.851Z,3.10
2022-10-14T16:52:19.510Z,3.50
2022-10-14T16:54:46.994Z,2.80
2022-10-14T16:57:14.473Z,3.15
2022-10-14T16:59:41.429Z,4.75
2022-10-14T17:02:15.508Z,3.75
2022-10-14T17:04:43.213Z,4.07
2022-10-14T17:07:10.306Z,3.25
2022-10-14T17:09:38.965Z,2.53
2022-10-14T17:12:09.382Z,2.50
2022-10-14T17:14:39.755Z,3.15
2022-10-14T17:17:06.545Z,3.03
2022-10-14T17:19:33.556Z,3.67
2022-10-14T17:22:02.018Z,2.70
2022-10-14T17:24:29.626Z,2.72
2022-10-14T17:26:56.783Z,3.75
2022-10-14T17:29:24.131Z,4.25
2022-10-14T17:31:50.966Z,3.53
2022-10-14T17:34:17.692Z,2.85
2022-10-14T17:36:44.446Z,3.20
2022-10-14T17:39:22.829Z,3.30
2022-10-14T17:41:56.309Z,3.03
2022-10-14T17:44:23.376Z,2.80
2022-10-14T17:46:50.210Z,2.75
2022-10-14T17:49:16.979Z,3.13
2022-10-14T17:51:44.824Z,3.55
2022-10-14T17:54:12.363Z,3.78
2022-10-14T17:56:39.690Z,3.38
2022-10-14T17:59:13.922Z,3.55
2022-10-14T18:02:01.711Z,3.38
2022-10-14T18:04:27.641Z,2.88
2022-10-14T18:06:54.445Z,3.25
2022-10-14T18:09:21.250Z,2.65
2022-10-14T18:14:41.257Z,3.40
2022-10-14T18:17:10.836Z,4.35
2022-10-14T18:19:39.033Z,4.13
2022-10-14T18:22:06.999Z,3.15
2022-10-14T18:24:38.299Z,2.65
2022-10-14T18:27:05.715Z,3.13
2022-10-14T18:29:32.550Z,3.13
2022-10-14T18:31:59.311Z,3.45
2022-10-14T18:34:27.344Z,3.85
2022-10-14T18:36:54.270Z,4.57
2022-10-14T18:39:21.226Z,4.20
2022-10-14T18:41:48.065Z,4.40
2022-10-14T18:44:15.184Z,3.97
2022-10-14T18:46:42.050Z,2.90
2022-10-14T18:49:11.386Z,3.60
2022-10-14T18:51:40.221Z,2.60
2022-10-14T18:54:12.167Z,3.70
2022-10-14T18:56:39.038Z,2.60
2022-10-14T18:59:18.181Z,3.72
2022-10-14T19:01:46.011Z,2.50
2022-10-14T19:04:15.058Z,2.35
2022-10-14T19:06:45.829Z,2.65
2022-10-14T19:09:13.604Z,2.55
2022-10-14T19:11:41.229Z,2.55
2022-10-14T19:14:09.826Z,3.35
2022-10-14T19:16:38.291Z,4.13
2022-10-14T19:19:18.229Z,2.65
2022-10-14T19:21:47.469Z,3.58
2022-10-14T19:24:14.333Z,2.70
2022-10-14T19:26:44.137Z,2.88
2022-10-14T19:29:13.659Z,3.08
2022-10-14T19:31:41.611Z,3.72
2022-10-14T19:34:12.192Z,2.67
2022-10-14T19:36:40.478Z,3.15
2022-10-14T19:39:09.345Z,3.63
2022-10-14T19:41:43.084Z,3.15
2022-10-14T19:44:12.672Z,3.05
2022-10-14T19:46:39.774Z,3.40
2022-10-14T19:49:06.652Z,2.97
2022-10-14T19:51:34.825Z,3.33
2022-10-14T19:54:01.713Z,3.00
2022-10-14T19:56:29.446Z,2.60
2022-10-14T19:58:58.088Z,3.22
2022-10-14T20:01:27.491Z,2.95
2022-10-14T20:03:54.517Z,3.28
2022-10-14T20:06:22.885Z,4.20
2022-10-14T20:08:50.067Z,2.83
2022-10-14T20:11:19.794Z,4.82
2022-10-14T20:13:47.205Z,2.90
2022-10-14T20:16:14.444Z,3.33
2022-10-14T20:18:41.528Z,2.78
2022-10-14T20:21:10.420Z,3.10
2022-10-14T20:23:38.327Z,3.42
2022-10-14T20:26:14.209Z,3.25
2022-10-14T20:28:41.354Z,2.83
2022-10-14T20:31:10.431Z,3.10
2022-10-14T20:33:37.505Z,3.22
2022-10-14T20:36:06.766Z,3.55
2022-10-14T20:38:38.421Z,3.35
2022-10-14T20:41:13.240Z,3.53
2022-10-14T20:43:41.024Z,3.28
2022-10-14T20:46:08.099Z,2.90
2022-10-14T20:48:34.939Z,3.20
2022-10-14T20:51:05.556Z,2.63
2022-10-14T20:53:32.802Z,2.60
2022-10-14T20:56:04.894Z,2.92
2022-10-14T20:58:31.922Z,3.08
2022-10-14T21:01:10.634Z,3.10
2022-10-14T21:03:37.835Z,3.20
2022-10-14T21:06:06.695Z,2.45
2022-10-14T21:08:33.932Z,2.80
2022-10-14T21:11:02.162Z,3.95
2022-10-14T21:13:29.758Z,2.75
2022-10-14T21:15:56.932Z,2.85
2022-10-14T21:18:24.405Z,2.30
2022-10-14T21:23:20.074Z,2.00
2022-10-14T21:25:56.097Z,2.72
2022-10-14T21:28:23.680Z,2.20
2022-10-14T21:30:50.484Z,2.42
2022-10-14T21:33:17.286Z,1.80
2022-10-14T21:35:44.103Z,3.05
2022-10-14T21:38:10.857Z,2.83
2022-10-14T21:40:37.616Z,2.67
2022-10-14T21:43:04.425Z,2.70
2022-10-14T21:45:31.158Z,2.10
2022-10-14T21:50:30.189Z,2.38
2022-10-14T21:52:56.916Z,2.63
2022-10-14T21:55:23.656Z,2.63
2022-10-14T21:57:51.411Z,2.08
2022-10-14T22:00:18.424Z,2.45
2022-10-14T22:02:45.170Z,2.05
2022-10-14T22:05:11.951Z,2.22
2022-10-14T22:07:38.720Z,2.55
2022-10-14T22:10:25.882Z,2.40
2022-10-14T22:12:54.910Z,2.00
2022-10-14T22:15:21.626Z,2.10
2022-10-14T22:17:48.367Z,3.45
2022-10-14T22:20:15.396Z,2.58
2022-10-14T22:22:42.133Z,2.40
2022-10-14T22:25:09.351Z,2.05
2022-10-14T22:27:36.172Z,1.90
2022-10-14T22:30:04.027Z,1.90
2022-10-14T22:32:30.985Z,2.25
2022-10-14T22:34:57.920Z,2.55
2022-10-14T22:37:25.108Z,2.28
2022-10-14T22:39:52.128Z,2.10
2022-10-14T22:42:18.897Z,1.40
2022-10-14T22:44:45.623Z,2.10
2022-10-14T22:47:12.370Z,2.65
2022-10-14T22:49:39.117Z,2.17
2022-10-14T22:52:05.871Z,3.90
2022-10-14T22:54:32.886Z,1.95
2022-10-14T22:56:59.683Z,2.50
2022-10-14T22:59:26.577Z,2.00
2022-10-14T23:01:53.368Z,2.13
2022-10-14T23:04:20.181Z,1.83
2022-10-14T23:06:49.619Z,2.33
2022-10-14T23:09:16.593Z,1.58
2022-10-14T23:11:43.497Z,2.25
2022-10-14T23:14:10.244Z,1.80
2022-10-14T23:16:38.520Z,1.60
2022-10-14T23:19:05.409Z,2.55
2022-10-14T23:21:34.685Z,1.77
2022-10-14T23:24:07.450Z,2.72
2022-10-14T23:26:35.578Z,1.85
2022-10-14T23:29:07.877Z,1.98
2022-10-14T23:31:36.415Z,2.03
2022-10-14T23:34:08.063Z,1.63
2022-10-14T23:36:36.899Z,1.90
2022-10-14T23:39:04.773Z,2.80
2022-10-14T23:41:31.563Z,1.95
2022-10-14T23:43:58.561Z,1.95
2022-10-14T23:46:26.779Z,2.55
2022-10-14T23:49:06.950Z,1.50
2022-10-14T23:51:35.347Z,1.83
2022-10-14T23:54:02.145Z,2.05
2022-10-14T23:56:29.306Z,1.63
2022-10-14T23:58:56.150Z,1.60
